createdAt,value
2017-10-01T00:01:47.282Z,99.90
2017-10-01T00:04:13.768Z,99.90
2017-10-01T00:06:40.214Z,99.90
2017-10-01T00:09:06.639Z,99.90
2017-10-01T00:11:33.963Z,99.90
2017-10-01T00:14:00.424Z,99.90
2017-10-01T00:16:26.912Z,99.90
2017-10-01T00:18:53.314Z,99.90
2017-10-01T00:21:19.755Z,99.90
2017-10-01T00:23:46.244Z,99.90
2017-10-01T00:26:12.679Z,99.90
2017-10-01T00:28:39.102Z,99.90
2017-10-01T00:31:05.500Z,99.90
2017-10-01T00:33:32.028Z,99.90
2017-10-01T00:35:58.471Z,99.90
2017-10-01T00:38:24.975Z,99.90
2017-10-01T00:40:51.387Z,99.90
2017-10-01T00:43:17.864Z,99.90
2017-10-01T00:45:44.308Z,99.90
2017-10-01T00:48:10.740Z,99.90
2017-10-01T00:50:37.188Z,99.90
2017-10-01T00:53:03.729Z,99.90
2017-10-01T00:55:30.251Z,99.90
2017-10-01T00:57:57.436Z,99.90
2017-10-01T01:00:23.924Z,99.90
2017-10-01T01:02:50.371Z,99.90
2017-10-01T01:05:16.824Z,99.90
2017-10-01T01:07:43.994Z,99.90
2017-10-01T01:10:10.438Z,99.90
2017-10-01T01:12:36.878Z,99.90
2017-10-01T01:15:03.347Z,99.90
2017-10-01T01:17:29.835Z,99.90
2017-10-01T01:19:56.346Z,99.90
2017-10-01T01:22:22.797Z,99.90
2017-10-01T01:24:49.288Z,99.90
2017-10-01T01:27:16.471Z,99.90
2017-10-01T01:29:42.930Z,99.90
2017-10-01T01:32:09.384Z,99.90
2017-10-01T01:34:35.859Z,99.90
2017-10-01T01:37:02.417Z,99.90
2017-10-01T01:39:29.621Z,99.90
2017-10-01T01:41:56.124Z,99.90
2017-10-01T01:44:23.331Z,99.90
2017-10-01T01:46:49.809Z,99.90
2017-10-01T01:49:16.264Z,99.90
2017-10-01T01:51:43.517Z,99.90
2017-10-01T01:54:10.079Z,99.90
2017-10-01T01:56:37.279Z,99.90
2017-10-01T01:59:03.765Z,99.90
2017-10-01T02:01:30.214Z,99.90
2017-10-01T02:03:56.714Z,99.90
2017-10-01T02:06:23.201Z,99.90
2017-10-01T02:08:49.645Z,99.90
2017-10-01T02:11:16.871Z,99.90
2017-10-01T02:13:43.371Z,99.90
2017-10-01T02:16:09.843Z,99.90
2017-10-01T02:18:36.331Z,99.90
2017-10-01T02:21:02.791Z,99.90
2017-10-01T02:23:29.964Z,99.90
2017-10-01T02:25:56.439Z,99.90
2017-10-01T02:28:22.922Z,99.90
2017-10-01T02:30:49.352Z,99.90
2017-10-01T02:33:15.819Z,99.90
2017-10-01T02:35:43.183Z,99.90
2017-10-01T02:38:11.194Z,99.90
2017-10-01T02:40:37.932Z,99.90
2017-10-01T02:43:04.452Z,99.90
2017-10-01T02:45:30.915Z,99.90
2017-10-01T02:47:57.408Z,99.90
2017-10-01T02:50:23.884Z,99.90
2017-10-01T02:52:50.307Z,99.90
2017-10-01T02:55:16.791Z,99.90
2017-10-01T02:57:43.228Z,99.90
2017-10-01T03:00:11.609Z,99.90
2017-10-01T03:02:39.617Z,99.90
2017-10-01T03:05:06.185Z,99.90
2017-10-01T03:07:33.343Z,99.90
2017-10-01T03:09:59.818Z,99.90
2017-10-01T03:12:26.315Z,99.90
2017-10-01T03:14:53.627Z,99.90
2017-10-01T03:17:20.339Z,99.90
2017-10-01T03:19:46.748Z,99.90
2017-10-01T03:22:13.955Z,99.90
2017-10-01T03:24:40.385Z,99.90
2017-10-01T03:27:07.631Z,99.90
2017-10-01T03:29:34.079Z,99.90
2017-10-01T03:32:01.263Z,99.90
2017-10-01T03:34:27.663Z,99.90
2017-10-01T03:36:54.854Z,99.90
2017-10-01T03:39:22.090Z,99.90
2017-10-01T03:41:48.643Z,99.90
2017-10-01T03:44:15.111Z,99.90
2017-10-01T03:46:41.554Z,99.90
2017-10-01T03:49:08.073Z,99.90
2017-10-01T03:51:35.281Z,99.90
2017-10-01T03:54:02.102Z,99.90
2017-10-01T03:56:29.297Z,99.90
2017-10-01T03:58:55.766Z,99.90
2017-10-01T04:01:22.317Z,99.90
2017-10-01T04:03:48.767Z,99.90
2017-10-01T04:06:15.995Z,99.90
2017-10-01T04:08:42.416Z,99.90
2017-10-01T04:11:08.951Z,99.90
2017-10-01T04:13:35.579Z,99.90
2017-10-01T04:16:02.789Z,99.90
2017-10-01T04:18:29.207Z,99.90
2017-10-01T04:20:55.663Z,99.90
2017-10-01T04:23:22.087Z,99.90
2017-10-01T04:25:48.562Z,99.90
2017-10-01T04:28:14.989Z,99.90
2017-10-01T04:30:41.485Z,99.90
2017-10-01T04:33:07.906Z,99.90
2017-10-01T04:35:35.960Z,99.90
2017-10-01T04:38:02.456Z,99.90
2017-10-01T04:40:29.714Z,99.90
2017-10-01T04:42:56.951Z,99.90
2017-10-01T04:45:23.419Z,99.90
2017-10-01T04:47:49.991Z,99.90
2017-10-01T04:50:17.140Z,99.90
2017-10-01T04:52:44.351Z,99.90
2017-10-01T04:55:10.752Z,99.90
2017-10-01T04:57:37.979Z,99.90
2017-10-01T05:00:05.535Z,99.90
2017-10-01T05:02:32.044Z,99.90
2017-10-01T05:04:59.388Z,99.90
2017-10-01T05:07:26.406Z,99.90
2017-10-01T05:09:52.927Z,99.90
2017-10-01T05:12:19.704Z,99.90
2017-10-01T05:14:48.328Z,99.90
2017-10-01T05:17:15.004Z,99.90
2017-10-01T05:19:43.041Z,99.90
2017-10-01T05:22:09.831Z,99.90
2017-10-01T05:24:37.677Z,99.90
2017-10-01T05:27:04.908Z,99.90
2017-10-01T05:29:32.172Z,99.90
2017-10-01T05:32:00.170Z,99.90
2017-10-01T05:34:28.351Z,99.90
2017-10-01T05:36:54.907Z,99.90
2017-10-01T05:39:21.875Z,99.90
2017-10-01T05:41:48.431Z,99.90
2017-10-01T05:44:14.975Z,99.90
2017-10-01T05:46:41.551Z,99.90
2017-10-01T05:49:08.300Z,99.90
2017-10-01T05:51:34.906Z,99.90
2017-10-01T05:54:01.640Z,99.90
2017-10-01T05:56:28.841Z,99.90
2017-10-01T05:58:56.073Z,99.90
2017-10-01T06:01:22.625Z,99.90
2017-10-01T06:03:51.486Z,99.90
2017-10-01T06:06:18.012Z,99.90
2017-10-01T06:08:44.607Z,99.90
2017-10-01T06:11:12.147Z,99.90
2017-10-01T06:13:39.452Z,99.90
2017-10-01T06:16:06.694Z,99.90
2017-10-01T06:18:33.990Z,99.90
2017-10-01T06:21:00.665Z,99.90
2017-10-01T06:23:27.171Z,99.90
2017-10-01T06:25:54.361Z,99.90
2017-10-01T06:28:22.539Z,99.90
2017-10-01T06:30:49.901Z,99.90
2017-10-01T06:33:17.174Z,99.90
2017-10-01T06:35:43.747Z,99.90
2017-10-01T06:38:10.523Z,99.90
2017-10-01T06:40:37.009Z,99.90
2017-10-01T06:43:05.273Z,99.90
2017-10-01T06:45:31.751Z,99.90
2017-10-01T06:47:59.109Z,99.90
2017-10-01T06:50:26.141Z,99.90
2017-10-01T06:52:53.103Z,99.90
2017-10-01T06:55:21.232Z,99.90
2017-10-01T06:57:50.724Z,99.90
2017-10-01T07:00:17.455Z,99.90
2017-10-01T07:02:44.834Z,99.90
2017-10-01T07:05:12.536Z,99.90
2017-10-01T07:07:39.018Z,99.90
2017-10-01T07:10:05.807Z,99.90
2017-10-01T07:12:32.435Z,99.90
2017-10-01T07:14:59.844Z,99.90
2017-10-01T07:17:27.259Z,99.90
2017-10-01T07:19:54.826Z,99.90
2017-10-01T07:22:22.269Z,99.90
2017-10-01T07:24:49.598Z,99.90
2017-10-01T07:27:16.148Z,99.90
2017-10-01T07:29:43.564Z,99.90
2017-10-01T07:32:10.936Z,99.90
2017-10-01T07:34:39.304Z,99.90
2017-10-01T07:37:06.673Z,99.90
2017-10-01T07:39:33.286Z,99.90
2017-10-01T07:41:59.876Z,99.90
2017-10-01T07:44:26.472Z,99.90
2017-10-01T07:46:53.166Z,99.90
2017-10-01T07:49:19.686Z,99.90
2017-10-01T07:51:47.988Z,99.90
2017-10-01T07:54:15.623Z,99.90
2017-10-01T07:56:42.144Z,99.90
2017-10-01T07:59:10.888Z,99.90
2017-10-01T08:01:37.927Z,99.90
2017-10-01T08:04:08.869Z,99.90
2017-10-01T08:06:35.508Z,99.90
2017-10-01T08:09:03.877Z,99.90
2017-10-01T08:11:30.550Z,99.90
2017-10-01T08:13:57.152Z,99.90
2017-10-01T08:16:24.608Z,99.90
2017-10-01T08:18:53.814Z,99.90
2017-10-01T08:21:23.281Z,99.90
2017-10-01T08:23:49.871Z,99.90
2017-10-01T08:26:17.283Z,99.60
2017-10-01T08:28:44.118Z,99.90
2017-10-01T08:31:10.707Z,98.30
2017-10-01T08:33:37.270Z,98.20
2017-10-01T08:36:07.867Z,95.00
2017-10-01T08:38:34.451Z,95.00
2017-10-01T08:41:01.753Z,92.10
2017-10-01T08:43:28.355Z,92.20
2017-10-01T08:45:55.615Z,93.70
2017-10-01T08:48:25.685Z,94.30
2017-10-01T08:50:52.984Z,89.10
2017-10-01T08:53:20.267Z,89.20
2017-10-01T08:55:46.840Z,84.90
2017-10-01T08:58:14.155Z,86.70
2017-10-01T09:00:41.543Z,86.90
2017-10-01T09:03:08.677Z,87.00
2017-10-01T09:05:36.965Z,90.00
2017-10-01T09:08:03.565Z,90.00
2017-10-01T09:10:31.853Z,88.40
2017-10-01T09:12:59.699Z,87.80
2017-10-01T09:15:27.420Z,87.90
2017-10-01T09:17:54.139Z,87.30
2017-10-01T09:20:22.054Z,83.00
2017-10-01T09:22:50.266Z,82.90
2017-10-01T09:25:17.635Z,84.20
2017-10-01T09:27:44.136Z,83.80
2017-10-01T09:30:12.552Z,86.10
2017-10-01T09:32:41.919Z,83.70
2017-10-01T09:35:10.337Z,84.10
2017-10-01T09:37:36.931Z,80.50
2017-10-01T09:40:03.584Z,83.20
2017-10-01T09:42:30.155Z,81.70
2017-10-01T09:44:56.847Z,76.80
2017-10-01T09:47:25.216Z,74.80
2017-10-01T09:49:52.736Z,76.90
2017-10-01T09:52:19.960Z,78.20
2017-10-01T09:54:46.563Z,80.60
2017-10-01T09:57:13.549Z,79.00
2017-10-01T09:59:40.154Z,78.00
2017-10-01T10:02:06.688Z,80.00
2017-10-01T10:04:33.331Z,80.00
2017-10-01T10:07:01.341Z,73.00
2017-10-01T10:09:29.491Z,72.10
2017-10-01T10:11:59.244Z,72.20
2017-10-01T10:14:30.088Z,72.60
2017-10-01T10:16:56.708Z,72.60
2017-10-01T10:19:25.542Z,76.10
2017-10-01T10:21:53.520Z,73.30
2017-10-01T10:24:21.023Z,73.30
2017-10-01T10:26:48.242Z,73.80
2017-10-01T10:29:16.975Z,76.20
2017-10-01T10:31:45.585Z,75.80
2017-10-01T10:34:15.830Z,77.30
2017-10-01T10:36:42.531Z,77.40
2017-10-01T10:39:09.098Z,76.30
2017-10-01T10:41:37.630Z,73.10
2017-10-01T10:44:05.334Z,74.10
2017-10-01T10:46:34.195Z,71.80
2017-10-01T10:49:02.318Z,71.80
2017-10-01T10:51:29.915Z,70.10
2017-10-01T10:53:56.612Z,68.60
2017-10-01T10:56:23.998Z,68.60
2017-10-01T10:58:51.931Z,71.40
2017-10-01T11:01:20.023Z,71.80
2017-10-01T11:03:47.552Z,71.80
2017-10-01T11:06:15.783Z,71.10
2017-10-01T11:08:42.345Z,72.30
2017-10-01T11:11:08.966Z,71.80
2017-10-01T11:13:35.480Z,70.70
2017-10-01T11:16:02.131Z,69.60
2017-10-01T11:18:30.531Z,70.80
2017-10-01T11:20:57.857Z,70.10
2017-10-01T11:23:25.785Z,70.70
2017-10-01T11:25:52.446Z,70.70
2017-10-01T11:28:19.240Z,69.40
2017-10-01T11:30:46.742Z,67.60
2017-10-01T11:33:13.385Z,69.90
2017-10-01T11:35:41.614Z,70.30
2017-10-01T11:38:09.831Z,68.80
2017-10-01T11:40:39.413Z,68.80
2017-10-01T11:43:05.958Z,68.80
2017-10-01T11:45:33.222Z,67.70
2017-10-01T11:48:01.114Z,69.40
2017-10-01T11:50:28.480Z,68.80
2017-10-01T11:52:58.171Z,58.60
2017-10-01T11:55:27.770Z,58.50
2017-10-01T11:57:55.722Z,54.90
2017-10-01T12:00:25.431Z,55.30
2017-10-01T12:02:52.931Z,55.20
2017-10-01T12:05:19.961Z,55.50
2017-10-01T12:07:48.057Z,55.10
2017-10-01T12:10:15.317Z,56.50
2017-10-01T12:12:43.151Z,57.00
2017-10-01T12:15:09.802Z,57.00
2017-10-01T12:17:36.291Z,57.00
2017-10-01T12:20:03.615Z,55.80
2017-10-01T12:22:30.911Z,56.10
2017-10-01T12:24:58.206Z,57.00
2017-10-01T12:27:25.017Z,56.30
2017-10-01T12:29:53.119Z,54.30
2017-10-01T12:32:20.356Z,55.80
2017-10-01T12:34:47.618Z,56.20
2017-10-01T12:37:14.892Z,56.20
2017-10-01T12:39:42.985Z,55.10
2017-10-01T12:42:10.432Z,55.00
2017-10-01T12:44:39.145Z,55.00
2017-10-01T12:47:07.024Z,58.30
2017-10-01T12:49:33.839Z,58.40
2017-10-01T12:52:00.458Z,56.70
2017-10-01T12:54:28.733Z,56.30
2017-10-01T12:56:55.235Z,56.20
2017-10-01T12:59:21.784Z,55.80
2017-10-01T13:01:55.179Z,54.90
2017-10-01T13:04:22.431Z,54.80
2017-10-01T13:06:50.232Z,56.20
2017-10-01T13:09:16.708Z,55.70
2017-10-01T13:11:43.277Z,53.70
2017-10-01T13:14:11.952Z,54.70
2017-10-01T13:16:38.442Z,53.70
2017-10-01T13:19:05.516Z,53.70
2017-10-01T13:21:33.658Z,55.00
2017-10-01T13:24:00.476Z,53.90
2017-10-01T13:26:27.891Z,54.80
2017-10-01T13:28:55.232Z,55.70
2017-10-01T13:31:22.535Z,56.70
2017-10-01T13:33:49.772Z,56.50
2017-10-01T13:36:18.523Z,57.10
2017-10-01T13:38:48.892Z,55.60
2017-10-01T13:41:15.969Z,55.70
2017-10-01T13:43:43.873Z,56.20
2017-10-01T13:46:11.307Z,55.40
2017-10-01T13:48:37.939Z,55.40
2017-10-01T13:51:05.880Z,55.30
2017-10-01T13:53:32.387Z,55.20
2017-10-01T13:55:59.605Z,55.60
2017-10-01T13:58:27.336Z,56.00
2017-10-01T14:00:54.927Z,56.50
2017-10-01T14:03:23.124Z,57.20
2017-10-01T14:05:52.329Z,57.20
2017-10-01T14:08:19.062Z,56.80
2017-10-01T14:10:46.852Z,57.40
2017-10-01T14:13:13.481Z,57.00
2017-10-01T14:15:40.059Z,56.90
2017-10-01T14:18:07.312Z,56.10
2017-10-01T14:20:34.169Z,57.10
2017-10-01T14:23:01.963Z,58.20
2017-10-01T14:25:29.061Z,57.40
2017-10-01T14:27:57.347Z,58.10
2017-10-01T14:30:30.591Z,57.70
2017-10-01T14:32:57.219Z,58.20
2017-10-01T14:35:24.257Z,58.20
2017-10-01T14:37:51.402Z,58.60
2017-10-01T14:40:18.811Z,58.00
2017-10-01T14:42:46.767Z,58.70
2017-10-01T14:45:15.578Z,59.80
2017-10-01T14:47:42.641Z,59.20
2017-10-01T14:50:10.594Z,60.30
2017-10-01T14:52:37.765Z,60.40
2017-10-01T14:55:04.329Z,60.00
2017-10-01T14:57:30.904Z,59.80
2017-10-01T14:59:57.740Z,60.50
2017-10-01T15:02:25.742Z,58.90
2017-10-01T15:05:00.411Z,58.80
2017-10-01T15:07:29.303Z,58.30
2017-10-01T15:09:55.969Z,58.30
2017-10-01T15:12:23.864Z,59.20
2017-10-01T15:14:50.600Z,59.80
2017-10-01T15:17:20.223Z,59.10
2017-10-01T15:19:47.547Z,59.10
2017-10-01T15:22:14.201Z,59.40
2017-10-01T15:24:41.829Z,60.20
2017-10-01T15:27:09.987Z,61.80
2017-10-01T15:29:36.473Z,60.20
2017-10-01T15:32:03.743Z,60.90
2017-10-01T15:34:32.071Z,60.90
2017-10-01T15:36:58.655Z,61.50
2017-10-01T15:39:25.404Z,60.60
2017-10-01T15:41:52.860Z,61.30
2017-10-01T15:44:21.012Z,61.60
2017-10-01T15:46:47.557Z,61.30
2017-10-01T15:49:14.177Z,63.10
2017-10-01T15:51:40.831Z,63.30
2017-10-01T15:54:07.346Z,64.10
2017-10-01T15:56:33.854Z,64.20
2017-10-01T15:59:04.339Z,64.60
2017-10-01T16:01:30.803Z,64.80
2017-10-01T16:03:59.961Z,64.40
2017-10-01T16:06:27.520Z,64.90
2017-10-01T16:08:55.207Z,64.70
2017-10-01T16:11:22.045Z,65.30
2017-10-01T16:13:49.776Z,65.30
2017-10-01T16:16:17.381Z,66.50
2017-10-01T16:18:43.901Z,66.20
2017-10-01T16:21:11.528Z,66.20
2017-10-01T16:23:40.083Z,66.90
2017-10-01T16:26:07.447Z,67.10
2017-10-01T16:28:34.037Z,67.50
2017-10-01T16:31:01.553Z,68.80
2017-10-01T16:33:28.225Z,68.60
2017-10-01T16:35:55.767Z,69.00
2017-10-01T16:38:22.552Z,69.00
2017-10-01T16:40:49.083Z,69.60
2017-10-01T16:43:15.981Z,69.50
2017-10-01T16:45:43.427Z,70.30
2017-10-01T16:48:10.460Z,70.30
2017-10-01T16:50:38.043Z,70.10
2017-10-01T16:53:06.719Z,71.50
2017-10-01T16:55:34.036Z,72.20
2017-10-01T16:58:00.752Z,72.20
2017-10-01T17:00:27.301Z,73.40
2017-10-01T17:02:54.925Z,73.30
2017-10-01T17:05:21.881Z,74.10
2017-10-01T17:07:52.599Z,74.10
2017-10-01T17:10:19.401Z,74.70
2017-10-01T17:12:48.085Z,75.00
2017-10-01T17:15:15.272Z,75.60
2017-10-01T17:17:43.803Z,75.40
2017-10-01T17:20:11.386Z,75.50
2017-10-01T17:22:37.862Z,75.20
2017-10-01T17:25:06.770Z,76.20
2017-10-01T17:27:33.391Z,76.30
2017-10-01T17:30:00.145Z,76.20
2017-10-01T17:32:29.417Z,76.60
2017-10-01T17:34:55.941Z,76.50
2017-10-01T17:37:23.507Z,76.60
2017-10-01T17:39:50.105Z,76.60
2017-10-01T17:42:17.539Z,76.50
2017-10-01T17:44:44.779Z,77.00
2017-10-01T17:47:11.330Z,77.40
2017-10-01T17:49:37.782Z,77.70
2017-10-01T17:52:04.345Z,78.20
2017-10-01T17:54:30.872Z,77.30
2017-10-01T17:56:57.428Z,78.50
2017-10-01T17:59:24.635Z,78.30
2017-10-01T18:01:51.130Z,78.30
2017-10-01T18:04:18.341Z,78.00
2017-10-01T18:06:44.791Z,77.80
2017-10-01T18:09:11.232Z,78.20
2017-10-01T18:11:37.713Z,78.10
2017-10-01T18:14:04.251Z,77.90
2017-10-01T18:16:31.483Z,78.90
2017-10-01T18:18:58.162Z,78.90
2017-10-01T18:21:24.615Z,77.90
2017-10-01T18:23:51.802Z,78.50
2017-10-01T18:26:18.275Z,78.50
2017-10-01T18:28:44.683Z,78.10
2017-10-01T18:31:11.947Z,79.00
2017-10-01T18:33:38.462Z,78.90
2017-10-01T18:36:05.679Z,78.80
2017-10-01T18:38:32.168Z,78.80
2017-10-01T18:40:58.624Z,78.80
2017-10-01T18:43:25.150Z,78.80
2017-10-01T18:45:52.359Z,80.40
2017-10-01T18:48:19.530Z,79.10
2017-10-01T18:50:46.055Z,78.90
2017-10-01T18:53:13.236Z,79.50
2017-10-01T18:55:39.667Z,79.60
2017-10-01T18:58:06.113Z,79.40
2017-10-01T19:00:32.604Z,79.70
2017-10-01T19:02:59.043Z,79.50
2017-10-01T19:05:25.483Z,79.70
2017-10-01T19:07:53.491Z,80.50
2017-10-01T19:10:20.052Z,80.60
2017-10-01T19:12:47.246Z,80.90
2017-10-01T19:15:13.652Z,80.90
2017-10-01T19:17:40.177Z,81.10
2017-10-01T19:20:07.361Z,81.30
2017-10-01T19:22:33.819Z,81.30
2017-10-01T19:25:00.304Z,81.80
2017-10-01T19:27:26.847Z,81.60
2017-10-01T19:29:53.279Z,81.90
2017-10-01T19:32:19.858Z,81.80
2017-10-01T19:34:46.312Z,82.20
2017-10-01T19:37:12.820Z,82.60
2017-10-01T19:39:39.231Z,82.60
2017-10-01T19:42:05.683Z,82.50
2017-10-01T19:44:32.175Z,82.50
2017-10-01T19:46:58.664Z,83.30
2017-10-01T19:49:25.139Z,83.20
2017-10-01T19:51:51.611Z,83.70
2017-10-01T19:54:18.043Z,84.30
2017-10-01T19:56:45.347Z,84.00
2017-10-01T19:59:12.480Z,83.30
2017-10-01T20:01:39.748Z,83.00
2017-10-01T20:04:06.204Z,83.00
2017-10-01T20:06:32.731Z,83.50
2017-10-01T20:08:59.920Z,83.10
2017-10-01T20:11:26.433Z,83.20
2017-10-01T20:13:52.859Z,83.50
2017-10-01T20:16:19.695Z,83.80
2017-10-01T20:18:46.160Z,84.20
2017-10-01T20:21:13.348Z,84.60
2017-10-01T20:23:39.891Z,84.70
2017-10-01T20:26:07.058Z,84.90
2017-10-01T20:28:33.537Z,84.90
2017-10-01T20:31:00.022Z,85.30
2017-10-01T20:33:26.467Z,85.00
2017-10-01T20:35:52.920Z,85.50
2017-10-01T20:38:19.823Z,86.00
2017-10-01T20:40:46.300Z,86.30
2017-10-01T20:43:12.727Z,86.10
2017-10-01T20:45:39.136Z,86.70
2017-10-01T20:48:05.658Z,86.00
2017-10-01T20:50:32.888Z,84.90
2017-10-01T20:52:59.364Z,84.80
2017-10-01T20:55:25.783Z,84.90
2017-10-01T20:57:52.371Z,85.60
2017-10-01T21:00:19.803Z,85.70
2017-10-01T21:02:46.243Z,85.70
2017-10-01T21:05:12.707Z,86.30
2017-10-01T21:07:39.151Z,86.00
2017-10-01T21:10:06.395Z,86.00
2017-10-01T21:12:32.849Z,85.90
2017-10-01T21:14:59.408Z,86.00
2017-10-01T21:17:25.816Z,85.90
2017-10-01T21:19:52.272Z,87.50
2017-10-01T21:22:18.781Z,86.30
2017-10-01T21:24:45.499Z,86.80
2017-10-01T21:27:11.927Z,85.90
2017-10-01T21:29:38.429Z,86.40
2017-10-01T21:32:04.880Z,86.10
2017-10-01T21:34:31.395Z,85.40
2017-10-01T21:36:58.575Z,86.00
2017-10-01T21:39:25.035Z,86.10
2017-10-01T21:41:51.522Z,86.40
2017-10-01T21:44:19.092Z,86.50
2017-10-01T21:46:46.327Z,86.20
2017-10-01T21:49:12.749Z,86.20
2017-10-01T21:51:39.214Z,86.40
2017-10-01T21:54:05.660Z,86.40
2017-10-01T21:56:32.124Z,87.00
2017-10-01T21:58:59.311Z,87.30
2017-10-01T22:01:26.541Z,87.80
2017-10-01T22:03:52.983Z,87.80
2017-10-01T22:06:19.821Z,88.30
2017-10-01T22:08:46.259Z,88.80
2017-10-01T22:11:13.431Z,88.50
2017-10-01T22:13:41.481Z,88.80
2017-10-01T22:16:07.980Z,89.60
2017-10-01T22:18:34.404Z,89.20
2017-10-01T22:21:00.872Z,89.40
2017-10-01T22:23:27.340Z,89.20
2017-10-01T22:25:53.806Z,90.00
2017-10-01T22:28:20.275Z,90.00
2017-10-01T22:30:47.427Z,89.10
2017-10-01T22:33:14.676Z,89.00
2017-10-01T22:35:41.133Z,89.00
2017-10-01T22:38:08.323Z,88.70
2017-10-01T22:40:35.439Z,88.90
2017-10-01T22:43:03.335Z,89.10
2017-10-01T22:45:30.479Z,89.20
2017-10-01T22:47:56.916Z,89.20
2017-10-01T22:50:24.083Z,89.70
2017-10-01T22:52:50.490Z,89.50
2017-10-01T22:55:16.915Z,90.20
2017-10-01T22:57:43.335Z,90.50
2017-10-01T23:00:09.812Z,90.90
2017-10-01T23:02:36.203Z,90.80
2017-10-01T23:05:03.405Z,91.00
2017-10-01T23:07:29.863Z,91.00
2017-10-01T23:09:56.263Z,91.30
2017-10-01T23:12:22.715Z,91.50
2017-10-01T23:14:49.885Z,91.20
2017-10-01T23:17:17.024Z,91.40
2017-10-01T23:19:43.484Z,91.40
2017-10-01T23:22:10.047Z,91.30
2017-10-01T23:24:36.484Z,91.20
2017-10-01T23:27:03.645Z,91.00
2017-10-01T23:29:30.086Z,91.00
2017-10-01T23:31:56.491Z,90.80
2017-10-01T23:34:22.888Z,90.70
2017-10-01T23:36:50.099Z,91.20
2017-10-01T23:39:16.499Z,91.30
2017-10-01T23:41:42.950Z,91.30
2017-10-01T23:44:09.357Z,91.40
2017-10-01T23:46:35.775Z,91.20
2017-10-01T23:49:03.019Z,91.40
2017-10-01T23:51:29.468Z,91.40
2017-10-01T23:53:55.903Z,91.30
2017-10-01T23:56:22.363Z,91.00
2017-10-01T23:58:48.839Z,91.10
